Página principal
METAR-TAF:

METAR-TAF

Aeroportos :

Aeroporto Internacional de Fuaʻamotu

Tongatapu, Tonga

latitude: 21-14S, longitude: 175-09W, altura: 38 m

Observação actual do tempo

O boletim foi feito há 1 hora e 4 minutos, às 00:00 UTC
Vento 10 kt de sul
Temperatura 27°C
Humidade 66%
Pressão 1012 hPa
Visibilidade 10 km ou mais
Poucas nuvensa uma altura de 1700 ft
Nuvens fragmentadasa uma altura de 12000 ft

METAR: NFTF 130000Z 17010KT 9999 FEW017 BKN120 27/20 Q1012

Hora: 15:04 (01:04 UTC)

Previsão

O boletim foi feito há 1 hora e 54 minutos, às 23:10 UTC
Previsão válida de 13 às 00 UTC a 13 às 24 UTC
Vento 8 kt de sudeste
Visibilidade 10 km ou mais
Nuvens dispersasa uma altura de 1700 ft
Nuvens fragmentadasa uma altura de 10000 ft

TAF: NFTF 122310Z 1300/1324 13008KT 9999 SCT017 BKN100

Observações e previsões do tempo de mais de 4000 aeroportos (mensagens METAR e TAF).

As estações disponíveis são os pontos amarelos e vermelhos sobre o mapa.

Mova o rato sobre o mapa para ver o nome da estação.

Depois clique no ponto para visualizar as observações e previsões meteorológicas.

Para alterar o mapa : clique nos botões verdes com uma cruz preta para aumentar o zoom; no botão verde com uma pitada de zoom; ou nas setas verdes para mapas adjacentes.


METAR-TAF: